sensor_id;sensor_type;location;lat;lon;timestamp;pressure;altitude;pressure_sealevel;temperature;humidity
13486;BME280;6815;59.336;17.998;2023-02-17T00:01:59;52282.78;;;-145.37;97.52
13486;BME280;6815;59.336;17.998;2023-02-17T00:04:27;52256.84;;;-145.37;97.54
13486;BME280;6815;59.336;17.998;2023-02-17T00:06:53;52208.94;;;-145.37;97.51
13486;BME280;6815;59.336;17.998;2023-02-17T00:09:19;52248.84;;;-145.37;96.83
13486;BME280;6815;59.336;17.998;2023-02-17T00:11:45;52272.81;;;-145.37;97.45
13486;BME280;6815;59.336;17.998;2023-02-17T00:14:12;52224.91;;;-145.37;97.35
13486;BME280;6815;59.336;17.998;2023-02-17T00:16:38;52244.84;;;-145.37;97.81
13486;BME280;6815;59.336;17.998;2023-02-17T00:19:03;52270.81;;;-145.37;97.29
13486;BME280;6815;59.336;17.998;2023-02-17T00:21:48;52232.88;;;-145.37;97.27
13486;BME280;6815;59.336;17.998;2023-02-17T00:24:15;52250.84;;;-145.37;97.49
13486;BME280;6815;59.336;17.998;2023-02-17T00:26:40;52228.88;;;-145.37;97.17
13486;BME280;6815;59.336;17.998;2023-02-17T00:29:06;52238.88;;;-145.37;97.19
13486;BME280;6815;59.336;17.998;2023-02-17T00:31:33;52280.78;;;-145.37;97.68
13486;BME280;6815;59.336;17.998;2023-02-17T00:33:58;52218.91;;;-145.37;97.60
13486;BME280;6815;59.336;17.998;2023-02-17T00:36:25;52232.88;;;-145.37;96.80
13486;BME280;6815;59.336;17.998;2023-02-17T00:38:52;52228.88;;;-145.37;96.74
13486;BME280;6815;59.336;17.998;2023-02-17T00:41:19;52274.81;;;-145.37;97.41
13486;BME280;6815;59.336;17.998;2023-02-17T00:43:45;52232.88;;;-145.37;96.94
13486;BME280;6815;59.336;17.998;2023-02-17T00:46:11;52220.91;;;-145.37;97.04
13486;BME280;6815;59.336;17.998;2023-02-17T00:48:36;52256.84;;;-145.37;96.94
13486;BME280;6815;59.336;17.998;2023-02-17T00:51:02;52264.81;;;-145.37;96.95
13486;BME280;6815;59.336;17.998;2023-02-17T00:53:28;52264.81;;;-145.37;96.63
13486;BME280;6815;59.336;17.998;2023-02-17T00:55:53;52258.84;;;-145.37;97.03
13486;BME280;6815;59.336;17.998;2023-02-17T00:58:20;52260.84;;;-145.37;97.26
13486;BME280;6815;59.336;17.998;2023-02-17T01:00:45;52232.88;;;-145.37;96.97
13486;BME280;6815;59.336;17.998;2023-02-17T01:03:11;52248.84;;;-145.37;97.25
13486;BME280;6815;59.336;17.998;2023-02-17T01:05:47;52274.81;;;-145.37;97.09
13486;BME280;6815;59.336;17.998;2023-02-17T01:08:12;52240.88;;;-145.37;96.95
13486;BME280;6815;59.336;17.998;2023-02-17T01:11:02;52254.84;;;-145.37;97.13
13486;BME280;6815;59.336;17.998;2023-02-17T01:13:28;52276.81;;;-145.37;97.19
13486;BME280;6815;59.336;17.998;2023-02-17T01:15:54;52220.91;;;-145.37;97.14
13486;BME280;6815;59.336;17.998;2023-02-17T01:18:21;52220.91;;;-145.37;97.27
13486;BME280;6815;59.336;17.998;2023-02-17T01:20:48;52248.84;;;-145.37;97.48
13486;BME280;6815;59.336;17.998;2023-02-17T01:23:14;52248.84;;;-145.37;97.25
13486;BME280;6815;59.336;17.998;2023-02-17T01:25:41;52238.88;;;-145.37;97.37
13486;BME280;6815;59.336;17.998;2023-02-17T01:28:09;52214.91;;;-145.37;96.82
13486;BME280;6815;59.336;17.998;2023-02-17T01:30:35;52318.72;;;-145.37;96.75
13486;BME280;6815;59.336;17.998;2023-02-17T01:33:01;52292.78;;;-145.37;97.01
13486;BME280;6815;59.336;17.998;2023-02-17T01:35:27;52258.84;;;-145.37;97.24
13486;BME280;6815;59.336;17.998;2023-02-17T01:37:52;52364.63;;;-145.37;97.96
13486;BME280;6815;59.336;17.998;2023-02-17T01:40:18;52292.78;;;-145.37;97.25
13486;BME280;6815;59.336;17.998;2023-02-17T01:42:47;52236.88;;;-145.37;97.42
13486;BME280;6815;59.336;17.998;2023-02-17T01:47:51;52236.88;;;-145.37;97.91
13486;BME280;6815;59.336;17.998;2023-02-17T01:50:21;52240.88;;;-145.37;97.79
13486;BME280;6815;59.336;17.998;2023-02-17T01:52:49;52232.88;;;-145.37;97.50
13486;BME280;6815;59.336;17.998;2023-02-17T01:55:17;52260.84;;;-145.37;97.51
13486;BME280;6815;59.336;17.998;2023-02-17T01:57:45;52266.81;;;-145.37;97.20
13486;BME280;6815;59.336;17.998;2023-02-17T02:00:13;52224.91;;;-145.37;97.60
13486;BME280;6815;59.336;17.998;2023-02-17T02:02:41;52250.84;;;-145.37;98.08
13486;BME280;6815;59.336;17.998;2023-02-17T02:05:09;52252.84;;;-145.37;98.34
13486;BME280;6815;59.336;17.998;2023-02-17T02:07:39;52266.81;;;-145.37;98.63
13486;BME280;6815;59.336;17.998;2023-02-17T02:10:07;52278.78;;;-145.37;98.57
13486;BME280;6815;59.336;17.998;2023-02-17T02:12:35;52248.84;;;-145.37;98.33
13486;BME280;6815;59.336;17.998;2023-02-17T02:15:09;52242.88;;;-145.37;98.57
13486;BME280;6815;59.336;17.998;2023-02-17T02:26:13;52284.78;;;-145.37;98.63
13486;BME280;6815;59.336;17.998;2023-02-17T02:34:46;52242.88;;;-145.37;98.73
13486;BME280;6815;59.336;17.998;2023-02-17T02:37:17;52292.78;;;-145.37;98.51
13486;BME280;6815;59.336;17.998;2023-02-17T02:39:49;52234.88;;;-145.37;99.20
13486;BME280;6815;59.336;17.998;2023-02-17T02:42:20;52292.78;;;-145.37;98.68
13486;BME280;6815;59.336;17.998;2023-02-17T02:44:46;52268.81;;;-145.37;98.93
13486;BME280;6815;59.336;17.998;2023-02-17T02:50:10;52272.81;;;-145.37;98.99
13486;BME280;6815;59.336;17.998;2023-02-17T02:53:03;52272.81;;;-145.37;98.40
13486;BME280;6815;59.336;17.998;2023-02-17T02:55:53;52216.91;;;-145.37;99.14
13486;BME280;6815;59.336;17.998;2023-02-17T03:01:22;52260.84;;;-145.37;99.02
13486;BME280;6815;59.336;17.998;2023-02-17T03:04:12;52248.84;;;-145.37;98.58
13486;BME280;6815;59.336;17.998;2023-02-17T03:06:52;52234.88;;;-145.37;98.37
13486;BME280;6815;59.336;17.998;2023-02-17T03:09:25;52276.81;;;-145.37;97.58
13486;BME280;6815;59.336;17.998;2023-02-17T03:11:53;52260.84;;;-145.37;97.64
13486;BME280;6815;59.336;17.998;2023-02-17T03:14:20;52260.84;;;-145.37;97.82
13486;BME280;6815;59.336;17.998;2023-02-17T03:16:46;52282.78;;;-145.37;97.63
13486;BME280;6815;59.336;17.998;2023-02-17T03:19:13;52262.81;;;-145.37;98.57
13486;BME280;6815;59.336;17.998;2023-02-17T03:21:46;52246.84;;;-145.37;99.20
13486;BME280;6815;59.336;17.998;2023-02-17T03:24:13;52258.84;;;-145.37;99.06
13486;BME280;6815;59.336;17.998;2023-02-17T03:26:38;52198.94;;;-145.37;98.60
13486;BME280;6815;59.336;17.998;2023-02-17T03:29:03;52282.78;;;-145.37;98.92
13486;BME280;6815;59.336;17.998;2023-02-17T03:31:29;52216.91;;;-145.37;99.36
13486;BME280;6815;59.336;17.998;2023-02-17T03:33:55;52230.88;;;-145.37;99.54
13486;BME280;6815;59.336;17.998;2023-02-17T03:36:24;52244.84;;;-145.37;99.26
13486;BME280;6815;59.336;17.998;2023-02-17T03:38:49;52224.91;;;-145.37;99.31
13486;BME280;6815;59.336;17.998;2023-02-17T03:41:15;52252.84;;;-145.37;99.20
13486;BME280;6815;59.336;17.998;2023-02-17T03:43:41;52246.84;;;-145.37;99.31
13486;BME280;6815;59.336;17.998;2023-02-17T03:46:14;52270.81;;;-145.37;99.09
13486;BME280;6815;59.336;17.998;2023-02-17T03:48:40;52320.72;;;-145.37;99.38
13486;BME280;6815;59.336;17.998;2023-02-17T03:51:17;52212.91;;;-145.37;98.50
13486;BME280;6815;59.336;17.998;2023-02-17T03:53:43;52236.88;;;-145.37;98.10
13486;BME280;6815;59.336;17.998;2023-02-17T03:56:10;52238.88;;;-145.37;97.84
13486;BME280;6815;59.336;17.998;2023-02-17T03:58:35;52264.81;;;-145.37;98.43
13486;BME280;6815;59.336;17.998;2023-02-17T04:01:01;52238.88;;;-145.37;97.87
13486;BME280;6815;59.336;17.998;2023-02-17T04:03:26;52238.88;;;-145.37;97.64
13486;BME280;6815;59.336;17.998;2023-02-17T04:05:52;52282.78;;;-145.37;96.94
13486;BME280;6815;59.336;17.998;2023-02-17T04:08:22;52256.84;;;-145.37;97.77
13486;BME280;6815;59.336;17.998;2023-02-17T04:10:56;52280.78;;;-145.37;97.54
13486;BME280;6815;59.336;17.998;2023-02-17T04:13:22;52234.88;;;-145.37;97.87
13486;BME280;6815;59.336;17.998;2023-02-17T04:15:48;52220.91;;;-145.37;97.11
13486;BME280;6815;59.336;17.998;2023-02-17T04:18:14;52228.88;;;-145.37;97.28
13486;BME280;6815;59.336;17.998;2023-02-17T04:20:40;52268.81;;;-145.37;97.81
13486;BME280;6815;59.336;17.998;2023-02-17T04:23:05;52270.81;;;-145.37;97.08
13486;BME280;6815;59.336;17.998;2023-02-17T04:25:33;52280.78;;;-145.37;97.09
13486;BME280;6815;59.336;17.998;2023-02-17T04:27:59;52240.88;;;-145.37;96.57
13486;BME280;6815;59.336;17.998;2023-02-17T04:30:25;52173.00;;;-145.37;96.58
13486;BME280;6815;59.336;17.998;2023-02-17T04:32:51;52260.84;;;-145.37;96.54
13486;BME280;6815;59.336;17.998;2023-02-17T04:35:16;52268.81;;;-145.37;96.18
13486;BME280;6815;59.336;17.998;2023-02-17T04:37:42;52280.78;;;-145.37;96.39
13486;BME280;6815;59.336;17.998;2023-02-17T04:40:08;52264.81;;;-145.37;95.97
13486;BME280;6815;59.336;17.998;2023-02-17T04:42:35;52238.88;;;-145.37;96.11
13486;BME280;6815;59.336;17.998;2023-02-17T04:45:01;52234.88;;;-145.37;96.20
13486;BME280;6815;59.336;17.998;2023-02-17T04:47:26;52264.81;;;-145.37;96.32
13486;BME280;6815;59.336;17.998;2023-02-17T04:49:52;52272.81;;;-145.37;96.90
13486;BME280;6815;59.336;17.998;2023-02-17T04:52:18;52254.84;;;-145.37;96.31
13486;BME280;6815;59.336;17.998;2023-02-17T04:54:43;52280.78;;;-145.37;96.29
13486;BME280;6815;59.336;17.998;2023-02-17T04:57:09;52286.78;;;-145.37;96.40
13486;BME280;6815;59.336;17.998;2023-02-17T04:59:36;52232.88;;;-145.37;96.72
13486;BME280;6815;59.336;17.998;2023-02-17T05:02:01;52252.84;;;-145.37;96.63
13486;BME280;6815;59.336;17.998;2023-02-17T05:04:27;52296.75;;;-145.37;96.63
13486;BME280;6815;59.336;17.998;2023-02-17T05:06:52;52256.84;;;-145.37;96.96
13486;BME280;6815;59.336;17.998;2023-02-17T05:09:18;52270.81;;;-145.37;97.61
13486;BME280;6815;59.336;17.998;2023-02-17T05:11:44;52262.81;;;-145.37;96.82
13486;BME280;6815;59.336;17.998;2023-02-17T05:14:09;52226.91;;;-145.37;96.97
13486;BME280;6815;59.336;17.998;2023-02-17T05:16:35;52256.84;;;-145.37;96.48
13486;BME280;6815;59.336;17.998;2023-02-17T05:19:02;52292.78;;;-145.37;96.69
13486;BME280;6815;59.336;17.998;2023-02-17T05:21:27;52246.84;;;-145.37;96.95
13486;BME280;6815;59.336;17.998;2023-02-17T05:23:53;52252.84;;;-145.37;96.71
13486;BME280;6815;59.336;17.998;2023-02-17T05:26:19;52268.81;;;-145.37;96.79
13486;BME280;6815;59.336;17.998;2023-02-17T05:28:44;52272.81;;;-145.37;97.20
13486;BME280;6815;59.336;17.998;2023-02-17T05:31:10;52270.81;;;-145.37;96.99
13486;BME280;6815;59.336;17.998;2023-02-17T05:33:36;52278.78;;;-145.37;97.05
13486;BME280;6815;59.336;17.998;2023-02-17T05:36:03;52270.81;;;-145.37;96.59
13486;BME280;6815;59.336;17.998;2023-02-17T05:38:29;52262.81;;;-145.37;97.51
13486;BME280;6815;59.336;17.998;2023-02-17T05:40:55;52252.84;;;-145.37;97.51
13486;BME280;6815;59.336;17.998;2023-02-17T05:43:20;52244.84;;;-145.37;96.98
13486;BME280;6815;59.336;17.998;2023-02-17T05:45:46;52296.75;;;-145.37;96.97
13486;BME280;6815;59.336;17.998;2023-02-17T05:48:14;52228.88;;;-145.37;96.97
13486;BME280;6815;59.336;17.998;2023-02-17T05:50:40;52244.84;;;-145.37;97.45
13486;BME280;6815;59.336;17.998;2023-02-17T05:53:05;52268.81;;;-145.37;97.15
13486;BME280;6815;59.336;17.998;2023-02-17T05:55:31;52256.84;;;-145.37;97.10
13486;BME280;6815;59.336;17.998;2023-02-17T05:57:57;52266.81;;;-145.37;96.97
13486;BME280;6815;59.336;17.998;2023-02-17T06:00:22;52270.81;;;-145.37;96.91
13486;BME280;6815;59.336;17.998;2023-02-17T06:02:48;52242.88;;;-145.37;96.52
13486;BME280;6815;59.336;17.998;2023-02-17T06:05:14;52296.75;;;-145.37;96.43
13486;BME280;6815;59.336;17.998;2023-02-17T06:07:39;52300.75;;;-145.37;96.97
13486;BME280;6815;59.336;17.998;2023-02-17T06:10:05;52250.84;;;-145.37;96.74
13486;BME280;6815;59.336;17.998;2023-02-17T06:12:31;52244.84;;;-145.37;96.37
13486;BME280;6815;59.336;17.998;2023-02-17T06:14:56;52230.88;;;-145.37;96.72
13486;BME280;6815;59.336;17.998;2023-02-17T06:17:22;52254.84;;;-145.37;96.03
13486;BME280;6815;59.336;17.998;2023-02-17T06:19:47;52258.84;;;-145.37;96.14
13486;BME280;6815;59.336;17.998;2023-02-17T06:22:14;52262.81;;;-145.37;96.06
13486;BME280;6815;59.336;17.998;2023-02-17T06:24:39;52284.78;;;-145.37;96.20
13486;BME280;6815;59.336;17.998;2023-02-17T06:27:05;52258.84;;;-145.37;96.04
13486;BME280;6815;59.336;17.998;2023-02-17T06:29:30;52312.72;;;-145.37;96.53
13486;BME280;6815;59.336;17.998;2023-02-17T06:31:56;52298.75;;;-145.37;96.04
13486;BME280;6815;59.336;17.998;2023-02-17T06:34:21;52246.84;;;-145.37;96.35
13486;BME280;6815;59.336;17.998;2023-02-17T06:36:47;52260.84;;;-145.37;96.94
13486;BME280;6815;59.336;17.998;2023-02-17T06:39:12;52238.88;;;-145.37;96.98
13486;BME280;6815;59.336;17.998;2023-02-17T06:41:38;52320.72;;;-145.37;96.66
13486;BME280;6815;59.336;17.998;2023-02-17T06:44:04;52258.84;;;-145.37;96.61
13486;BME280;6815;59.336;17.998;2023-02-17T06:46:29;52254.84;;;-145.37;96.46
13486;BME280;6815;59.336;17.998;2023-02-17T06:48:56;52258.84;;;-145.37;96.37
13486;BME280;6815;59.336;17.998;2023-02-17T06:51:21;52270.81;;;-145.37;95.79
13486;BME280;6815;59.336;17.998;2023-02-17T06:53:49;52208.94;;;-145.37;95.94
13486;BME280;6815;59.336;17.998;2023-02-17T06:56:14;52250.84;;;-145.37;96.30
13486;BME280;6815;59.336;17.998;2023-02-17T06:58:39;52242.88;;;-145.37;96.01
13486;BME280;6815;59.336;17.998;2023-02-17T07:01:05;52214.91;;;-145.37;96.66
13486;BME280;6815;59.336;17.998;2023-02-17T07:03:32;52244.84;;;-145.37;96.71
13486;BME280;6815;59.336;17.998;2023-02-17T07:05:59;52292.78;;;-145.37;96.83
13486;BME280;6815;59.336;17.998;2023-02-17T07:08:25;52262.81;;;-145.37;96.09
13486;BME280;6815;59.336;17.998;2023-02-17T07:10:51;52244.84;;;-145.37;96.17
13486;BME280;6815;59.336;17.998;2023-02-17T07:13:17;52282.78;;;-145.37;96.31
13486;BME280;6815;59.336;17.998;2023-02-17T07:15:42;52254.84;;;-145.37;95.63
13486;BME280;6815;59.336;17.998;2023-02-17T07:18:07;52240.88;;;-145.37;96.55
13486;BME280;6815;59.336;17.998;2023-02-17T07:20:33;52256.84;;;-145.37;96.00
13486;BME280;6815;59.336;17.998;2023-02-17T07:22:59;52284.78;;;-145.37;95.59
13486;BME280;6815;59.336;17.998;2023-02-17T07:25:25;52242.88;;;-145.37;95.57
13486;BME280;6815;59.336;17.998;2023-02-17T07:27:51;52280.78;;;-145.37;95.38
13486;BME280;6815;59.336;17.998;2023-02-17T07:30:16;52284.78;;;-145.37;95.32
13486;BME280;6815;59.336;17.998;2023-02-17T07:32:42;52270.81;;;-145.37;95.42
13486;BME280;6815;59.336;17.998;2023-02-17T07:35:07;52292.78;;;-145.37;94.97
13486;BME280;6815;59.336;17.998;2023-02-17T07:37:33;52248.84;;;-145.37;95.00
13486;BME280;6815;59.336;17.998;2023-02-17T07:39:59;52280.78;;;-145.37;95.23
13486;BME280;6815;59.336;17.998;2023-02-17T07:42:27;52302.75;;;-145.37;94.73
13486;BME280;6815;59.336;17.998;2023-02-17T07:44:53;52298.75;;;-145.37;94.55
13486;BME280;6815;59.336;17.998;2023-02-17T07:47:18;52262.81;;;-145.37;94.34
13486;BME280;6815;59.336;17.998;2023-02-17T07:49:44;52242.88;;;-145.37;94.24
13486;BME280;6815;59.336;17.998;2023-02-17T07:52:09;52260.84;;;-145.37;94.00
13486;BME280;6815;59.336;17.998;2023-02-17T07:54:35;52292.78;;;-145.37;93.61
13486;BME280;6815;59.336;17.998;2023-02-17T07:57:00;52232.88;;;-145.37;93.65
13486;BME280;6815;59.336;17.998;2023-02-17T07:59:26;52280.78;;;-145.37;93.53
13486;BME280;6815;59.336;17.998;2023-02-17T08:01:51;52278.78;;;-145.37;93.84
13486;BME280;6815;59.336;17.998;2023-02-17T08:04:17;52238.88;;;-145.37;93.53
13486;BME280;6815;59.336;17.998;2023-02-17T08:06:42;52256.84;;;-145.37;93.58
13486;BME280;6815;59.336;17.998;2023-02-17T08:09:11;52312.72;;;-145.37;93.30
13486;BME280;6815;59.336;17.998;2023-02-17T08:11:55;52234.88;;;-145.37;93.17
13486;BME280;6815;59.336;17.998;2023-02-17T08:14:40;52266.81;;;-145.37;93.72
13486;BME280;6815;59.336;17.998;2023-02-17T08:17:06;52274.81;;;-145.37;93.31
13486;BME280;6815;59.336;17.998;2023-02-17T08:19:32;52246.84;;;-145.37;93.07
13486;BME280;6815;59.336;17.998;2023-02-17T08:21:57;52248.84;;;-145.37;92.60
13486;BME280;6815;59.336;17.998;2023-02-17T08:24:23;52264.81;;;-145.37;93.07
13486;BME280;6815;59.336;17.998;2023-02-17T08:26:50;52228.88;;;-145.37;92.66
13486;BME280;6815;59.336;17.998;2023-02-17T08:29:16;52252.84;;;-145.37;93.32
13486;BME280;6815;59.336;17.998;2023-02-17T08:31:43;52276.81;;;-145.37;93.10
13486;BME280;6815;59.336;17.998;2023-02-17T08:34:09;52288.78;;;-145.37;92.61
13486;BME280;6815;59.336;17.998;2023-02-17T08:36:35;52248.84;;;-145.37;92.94
13486;BME280;6815;59.336;17.998;2023-02-17T08:39:02;52254.84;;;-145.37;92.42
13486;BME280;6815;59.336;17.998;2023-02-17T08:41:32;52236.88;;;-145.37;92.53
13486;BME280;6815;59.336;17.998;2023-02-17T08:43:59;52284.78;;;-145.37;92.28
13486;BME280;6815;59.336;17.998;2023-02-17T08:46:26;52268.81;;;-145.37;92.35
13486;BME280;6815;59.336;17.998;2023-02-17T08:48:52;52264.81;;;-145.37;92.00
13486;BME280;6815;59.336;17.998;2023-02-17T08:51:20;52270.81;;;-145.37;91.55
13486;BME280;6815;59.336;17.998;2023-02-17T08:53:55;52270.81;;;-145.37;91.36
13486;BME280;6815;59.336;17.998;2023-02-17T08:56:24;52266.81;;;-145.37;91.62
13486;BME280;6815;59.336;17.998;2023-02-17T08:58:50;52270.81;;;-145.37;91.35
13486;BME280;6815;59.336;17.998;2023-02-17T09:01:16;52302.75;;;-145.37;91.12
13486;BME280;6815;59.336;17.998;2023-02-17T09:03:45;52292.78;;;-145.37;90.99
13486;BME280;6815;59.336;17.998;2023-02-17T09:06:11;52254.84;;;-145.37;90.62
13486;BME280;6815;59.336;17.998;2023-02-17T09:08:37;52270.81;;;-145.37;90.95
13486;BME280;6815;59.336;17.998;2023-02-17T09:11:05;52286.78;;;-145.37;90.64
13486;BME280;6815;59.336;17.998;2023-02-17T09:13:31;52258.84;;;-145.37;90.11
13486;BME280;6815;59.336;17.998;2023-02-17T09:15:57;52272.81;;;-145.37;90.37
13486;BME280;6815;59.336;17.998;2023-02-17T09:18:22;52292.78;;;-145.37;90.25
13486;BME280;6815;59.336;17.998;2023-02-17T09:20:48;52292.78;;;-145.37;90.50
13486;BME280;6815;59.336;17.998;2023-02-17T09:23:14;52294.75;;;-145.37;90.25
13486;BME280;6815;59.336;17.998;2023-02-17T09:25:40;52248.84;;;-145.37;90.07
13486;BME280;6815;59.336;17.998;2023-02-17T09:28:06;52276.81;;;-145.37;90.31
13486;BME280;6815;59.336;17.998;2023-02-17T09:30:31;52324.72;;;-145.37;90.50
13486;BME280;6815;59.336;17.998;2023-02-17T09:32:58;52278.78;;;-145.37;89.92
13486;BME280;6815;59.336;17.998;2023-02-17T09:35:24;52286.78;;;-145.37;89.79
13486;BME280;6815;59.336;17.998;2023-02-17T09:37:50;52286.78;;;-145.37;89.64
13486;BME280;6815;59.336;17.998;2023-02-17T09:40:20;52304.75;;;-145.37;89.69
13486;BME280;6815;59.336;17.998;2023-02-17T09:42:47;52244.84;;;-145.37;89.56
13486;BME280;6815;59.336;17.998;2023-02-17T09:45:18;52250.84;;;-145.37;89.39
13486;BME280;6815;59.336;17.998;2023-02-17T09:47:54;52264.81;;;-145.37;89.08
13486;BME280;6815;59.336;17.998;2023-02-17T09:50:25;52310.75;;;-145.37;89.12
13486;BME280;6815;59.336;17.998;2023-02-17T09:52:59;52274.81;;;-145.37;89.06
13486;BME280;6815;59.336;17.998;2023-02-17T09:55:29;52266.81;;;-145.37;89.05
13486;BME280;6815;59.336;17.998;2023-02-17T10:00:43;52272.81;;;-145.37;88.47
13486;BME280;6815;59.336;17.998;2023-02-17T10:03:24;52290.78;;;-145.37;88.37
13486;BME280;6815;59.336;17.998;2023-02-17T10:05:58;52306.75;;;-145.37;88.05
13486;BME280;6815;59.336;17.998;2023-02-17T10:08:31;52208.94;;;-145.37;88.26
13486;BME280;6815;59.336;17.998;2023-02-17T10:11:06;52262.81;;;-145.37;88.05
13486;BME280;6815;59.336;17.998;2023-02-17T10:13:34;52262.81;;;-145.37;87.99
13486;BME280;6815;59.336;17.998;2023-02-17T10:16:06;52294.75;;;-145.37;87.62
13486;BME280;6815;59.336;17.998;2023-02-17T10:18:38;52280.78;;;-145.37;87.74
13486;BME280;6815;59.336;17.998;2023-02-17T10:21:09;52256.84;;;-145.37;87.80
13486;BME280;6815;59.336;17.998;2023-02-17T10:23:36;52274.81;;;-145.37;88.58
13486;BME280;6815;59.336;17.998;2023-02-17T10:34:02;52264.81;;;-145.37;86.96
13486;BME280;6815;59.336;17.998;2023-02-17T10:42:15;52282.78;;;-145.37;86.62
13486;BME280;6815;59.336;17.998;2023-02-17T10:44:43;52260.84;;;-145.37;86.34
13486;BME280;6815;59.336;17.998;2023-02-17T10:47:08;52260.84;;;-145.37;86.61
13486;BME280;6815;59.336;17.998;2023-02-17T10:49:38;52292.78;;;-145.37;86.73
13486;BME280;6815;59.336;17.998;2023-02-17T10:52:21;52228.88;;;-145.37;86.70
13486;BME280;6815;59.336;17.998;2023-02-17T10:54:56;52292.78;;;-145.37;86.34
13486;BME280;6815;59.336;17.998;2023-02-17T10:57:27;52254.84;;;-145.37;86.27
13486;BME280;6815;59.336;17.998;2023-02-17T10:59:56;52270.81;;;-145.37;85.65
13486;BME280;6815;59.336;17.998;2023-02-17T11:04:57;52264.81;;;-145.37;85.44
13486;BME280;6815;59.336;17.998;2023-02-17T11:07:33;52284.78;;;-145.37;84.86
13486;BME280;6815;59.336;17.998;2023-02-17T11:10:02;52238.88;;;-145.37;85.40
13486;BME280;6815;59.336;17.998;2023-02-17T11:12:40;52274.81;;;-145.37;85.69
13486;BME280;6815;59.336;17.998;2023-02-17T11:15:44;52216.91;;;-145.37;86.27
13486;BME280;6815;59.336;17.998;2023-02-17T11:18:20;52262.81;;;-145.37;86.45
13486;BME280;6815;59.336;17.998;2023-02-17T11:20:49;52328.69;;;-145.37;86.73
13486;BME280;6815;59.336;17.998;2023-02-17T11:25:41;52302.75;;;-145.37;86.03
13486;BME280;6815;59.336;17.998;2023-02-17T11:28:12;52228.88;;;-145.37;86.31
13486;BME280;6815;59.336;17.998;2023-02-17T11:30:51;52292.78;;;-145.37;85.92
13486;BME280;6815;59.336;17.998;2023-02-17T11:33:30;52294.75;;;-145.37;86.07
13486;BME280;6815;59.336;17.998;2023-02-17T11:35:56;52276.81;;;-145.37;86.00
13486;BME280;6815;59.336;17.998;2023-02-17T11:38:26;52240.88;;;-145.37;85.73
13486;BME280;6815;59.336;17.998;2023-02-17T11:40:56;52250.84;;;-145.37;85.38
13486;BME280;6815;59.336;17.998;2023-02-17T11:43:22;52276.81;;;-145.37;85.58
13486;BME280;6815;59.336;17.998;2023-02-17T11:45:57;52262.81;;;-145.37;85.54
13486;BME280;6815;59.336;17.998;2023-02-17T11:57:39;52278.78;;;-145.37;85.51
13486;BME280;6815;59.336;17.998;2023-02-17T12:05:46;52264.81;;;-145.37;85.50
13486;BME280;6815;59.336;17.998;2023-02-17T12:19:23;52292.78;;;-145.37;85.95
13486;BME280;6815;59.336;17.998;2023-02-17T12:35:56;52250.84;;;-145.37;86.00
13486;BME280;6815;59.336;17.998;2023-02-17T12:38:30;52278.78;;;-145.37;85.63
13486;BME280;6815;59.336;17.998;2023-02-17T12:41:16;52260.84;;;-145.37;85.76
13486;BME280;6815;59.336;17.998;2023-02-17T12:44:06;52294.75;;;-145.37;85.61
13486;BME280;6815;59.336;17.998;2023-02-17T12:46:38;52280.78;;;-145.37;85.08
13486;BME280;6815;59.336;17.998;2023-02-17T12:49:24;52262.81;;;-145.37;85.58
13486;BME280;6815;59.336;17.998;2023-02-17T12:52:27;52274.81;;;-145.37;85.10
13486;BME280;6815;59.336;17.998;2023-02-17T12:55:12;52274.81;;;-145.37;86.27
13486;BME280;6815;59.336;17.998;2023-02-17T12:57:51;52266.81;;;-145.37;86.11
13486;BME280;6815;59.336;17.998;2023-02-17T13:00:21;52276.81;;;-145.37;87.19
13486;BME280;6815;59.336;17.998;2023-02-17T13:02:48;52284.78;;;-145.37;88.50
13486;BME280;6815;59.336;17.998;2023-02-17T13:05:50;52290.78;;;-145.37;88.92
13486;BME280;6815;59.336;17.998;2023-02-17T13:08:20;52272.81;;;-145.37;90.00
13486;BME280;6815;59.336;17.998;2023-02-17T13:11:00;52252.84;;;-145.37;89.78
13486;BME280;6815;59.336;17.998;2023-02-17T13:13:28;52238.88;;;-145.37;90.98
13486;BME280;6815;59.336;17.998;2023-02-17T13:18:38;52272.81;;;-145.37;92.13
13486;BME280;6815;59.336;17.998;2023-02-17T13:23:44;52258.84;;;-145.37;92.63
13486;BME280;6815;59.336;17.998;2023-02-17T13:28:42;52268.81;;;-145.37;93.78
13486;BME280;6815;59.336;17.998;2023-02-17T13:31:19;52272.81;;;-145.37;94.62
13486;BME280;6815;59.336;17.998;2023-02-17T13:33:56;52266.81;;;-145.37;94.13
13486;BME280;6815;59.336;17.998;2023-02-17T13:39:01;52270.81;;;-145.37;95.46
13486;BME280;6815;59.336;17.998;2023-02-17T13:41:28;52244.84;;;-145.37;95.09
13486;BME280;6815;59.336;17.998;2023-02-17T13:43:57;52230.88;;;-145.37;94.79
13486;BME280;6815;59.336;17.998;2023-02-17T13:46:26;52298.75;;;-145.37;95.37
13486;BME280;6815;59.336;17.998;2023-02-17T13:49:03;52276.81;;;-145.37;96.00
13486;BME280;6815;59.336;17.998;2023-02-17T13:51:31;52242.88;;;-145.37;96.68
13486;BME280;6815;59.336;17.998;2023-02-17T13:54:05;52230.88;;;-145.37;96.08
13486;BME280;6815;59.336;17.998;2023-02-17T13:56:31;52254.84;;;-145.37;96.90
13486;BME280;6815;59.336;17.998;2023-02-17T13:59:13;52242.88;;;-145.37;97.62
13486;BME280;6815;59.336;17.998;2023-02-17T14:01:47;52272.81;;;-145.37;97.98
13486;BME280;6815;59.336;17.998;2023-02-17T14:04:31;52292.78;;;-145.37;97.71
13486;BME280;6815;59.336;17.998;2023-02-17T14:06:58;52280.78;;;-145.37;98.08
13486;BME280;6815;59.336;17.998;2023-02-17T14:09:31;52274.81;;;-145.37;97.90
13486;BME280;6815;59.336;17.998;2023-02-17T14:12:00;52250.84;;;-145.37;98.32
13486;BME280;6815;59.336;17.998;2023-02-17T14:14:31;52262.81;;;-145.37;98.19
13486;BME280;6815;59.336;17.998;2023-02-17T14:17:02;52252.84;;;-145.37;98.38
13486;BME280;6815;59.336;17.998;2023-02-17T14:19:28;52334.69;;;-145.37;98.12
13486;BME280;6815;59.336;17.998;2023-02-17T14:24:24;52292.78;;;-145.37;97.69
13486;BME280;6815;59.336;17.998;2023-02-17T14:26:55;52302.75;;;-145.37;98.46